createdAt,value
2019-06-01T00:00:11.631Z,0.60
2019-06-01T00:01:04.682Z,0.60
2019-06-01T00:02:04.711Z,0.50
2019-06-01T00:03:04.752Z,0.60
2019-06-01T00:04:04.774Z,0.50
2019-06-01T00:05:04.803Z,0.50
2019-06-01T00:06:04.825Z,0.50
2019-06-01T00:07:04.852Z,0.50
2019-06-01T00:08:04.882Z,0.40
2019-06-01T00:09:04.914Z,0.40
2019-06-01T00:10:04.945Z,0.60
2019-06-01T00:11:04.968Z,0.50
2019-06-01T00:12:04.996Z,0.50
2019-06-01T00:13:05.033Z,0.50
2019-06-01T00:14:05.055Z,0.50
2019-06-01T00:15:05.086Z,0.50
2019-06-01T00:16:05.117Z,0.60
2019-06-01T00:17:05.139Z,0.60
2019-06-01T00:18:05.166Z,0.50
2019-06-01T00:19:05.197Z,0.40
2019-06-01T00:20:05.224Z,0.50
2019-06-01T00:21:05.250Z,0.50
2019-06-01T00:22:05.277Z,0.40
2019-06-01T00:23:05.308Z,0.60
2019-06-01T00:24:05.340Z,0.50
2019-06-01T00:25:05.363Z,0.60
2019-06-01T00:26:05.409Z,0.50
2019-06-01T00:27:05.419Z,0.50
2019-06-01T00:28:05.447Z,0.50
2019-06-01T00:29:05.476Z,0.60
2019-06-01T00:30:05.504Z,0.60
2019-06-01T00:31:05.535Z,0.50
2019-06-01T00:32:05.564Z,0.50
2019-06-01T00:33:05.591Z,0.60
2019-06-01T00:34:05.618Z,0.40
2019-06-01T00:35:05.656Z,0.50
2019-06-01T00:36:05.674Z,0.60
2019-06-01T00:37:05.718Z,0.50
2019-06-01T00:38:05.730Z,0.50
2019-06-01T00:39:05.759Z,0.60
2019-06-01T00:40:05.795Z,0.60
2019-06-01T00:41:05.818Z,0.60
2019-06-01T00:42:05.843Z,0.40
2019-06-01T00:43:05.872Z,0.50
2019-06-01T00:44:05.900Z,0.50
2019-06-01T00:45:05.928Z,0.50
2019-06-01T00:46:05.958Z,0.40
2019-06-01T00:47:05.986Z,0.50
2019-06-01T00:48:06.013Z,0.50
2019-06-01T00:49:06.045Z,0.60
2019-06-01T00:50:06.069Z,0.40
2019-06-01T00:51:06.103Z,0.60
2019-06-01T00:52:06.127Z,0.50
2019-06-01T00:53:06.155Z,0.50
2019-06-01T00:54:06.182Z,0.50
2019-06-01T00:55:06.213Z,0.50
2019-06-01T00:56:06.238Z,0.60
2019-06-01T00:57:06.269Z,0.60
2019-06-01T00:58:06.296Z,0.50
2019-06-01T00:59:06.324Z,0.50
2019-06-01T01:00:06.356Z,0.50
2019-06-01T01:01:06.386Z,0.50
2019-06-01T01:02:06.409Z,0.50
2019-06-01T01:03:06.447Z,0.70
2019-06-01T01:04:06.470Z,0.60
2019-06-01T01:05:06.517Z,0.60
2019-06-01T01:06:06.529Z,0.60
2019-06-01T01:07:06.559Z,0.60
2019-06-01T01:08:06.578Z,0.50
2019-06-01T01:09:06.608Z,0.50
2019-06-01T01:10:06.632Z,0.60
2019-06-01T01:11:06.662Z,0.60
2019-06-01T01:12:06.689Z,0.60
2019-06-01T01:13:06.719Z,0.60
2019-06-01T01:14:06.750Z,0.60
2019-06-01T01:15:06.793Z,0.70
2019-06-01T01:16:06.801Z,0.60
2019-06-01T01:17:06.831Z,0.50
2019-06-01T01:18:06.858Z,0.60
2019-06-01T01:19:06.884Z,0.60
2019-06-01T01:20:06.916Z,0.60
2019-06-01T01:21:06.943Z,0.50
2019-06-01T01:22:06.968Z,0.40
2019-06-01T01:23:07.003Z,0.50
2019-06-01T01:24:07.027Z,0.60
2019-06-01T01:25:07.055Z,0.50
2019-06-01T01:26:07.100Z,0.50
2019-06-01T01:27:07.111Z,0.40
2019-06-01T01:28:07.138Z,0.60
2019-06-01T01:29:07.168Z,0.60
2019-06-01T01:30:07.197Z,0.50
2019-06-01T01:31:13.730Z,0.50
2019-06-01T01:32:07.252Z,0.50
2019-06-01T01:33:07.284Z,0.50
2019-06-01T01:34:07.312Z,0.60
2019-06-01T01:35:07.340Z,0.60
2019-06-01T01:36:07.367Z,0.50
2019-06-01T01:37:07.398Z,0.50
2019-06-01T01:38:07.419Z,0.60
2019-06-01T01:39:07.445Z,0.50
2019-06-01T01:40:07.473Z,0.50
2019-06-01T01:41:07.508Z,0.50
2019-06-01T01:42:07.529Z,0.50
2019-06-01T01:43:07.563Z,0.40
2019-06-01T01:44:07.587Z,0.50
2019-06-01T01:45:07.613Z,0.60
2019-06-01T01:46:07.642Z,0.50
2019-06-01T01:47:07.669Z,0.50
2019-06-01T01:48:07.697Z,0.50
2019-06-01T01:49:07.734Z,0.50
2019-06-01T01:50:07.759Z,0.50
2019-06-01T01:51:07.783Z,0.60
2019-06-01T01:52:07.810Z,0.50
2019-06-01T01:53:07.845Z,0.50
2019-06-01T01:54:07.872Z,0.50
2019-06-01T01:55:07.892Z,0.50
2019-06-01T01:56:07.927Z,0.50
2019-06-01T01:57:07.951Z,0.40
2019-06-01T01:58:07.977Z,0.50
2019-06-01T01:59:08.006Z,0.50
2019-06-01T02:00:08.039Z,0.50
2019-06-01T02:01:21.331Z,0.50
2019-06-01T02:02:08.094Z,0.40
2019-06-01T02:03:08.127Z,0.40
2019-06-01T02:04:08.155Z,0.50
2019-06-01T02:05:08.171Z,0.40
2019-06-01T02:06:08.200Z,0.50
2019-06-01T02:07:08.230Z,0.60
2019-06-01T02:08:08.255Z,0.50
2019-06-01T02:09:08.283Z,0.40
2019-06-01T02:10:08.311Z,0.40
2019-06-01T02:11:08.338Z,0.50
2019-06-01T02:12:08.369Z,0.50
2019-06-01T02:13:08.407Z,0.50
2019-06-01T02:14:08.424Z,0.60
2019-06-01T02:15:08.455Z,0.50
2019-06-01T02:16:08.498Z,0.60
2019-06-01T02:17:08.509Z,0.50
2019-06-01T02:18:08.533Z,0.50
2019-06-01T02:19:08.570Z,0.50
2019-06-01T02:20:08.589Z,0.50
2019-06-01T02:21:08.619Z,0.60
2019-06-01T02:22:08.651Z,0.50
2019-06-01T02:23:08.674Z,0.50
2019-06-01T02:24:08.701Z,0.50
2019-06-01T02:25:08.731Z,0.60
2019-06-01T02:26:08.764Z,0.50
2019-06-01T02:27:08.786Z,0.50
2019-06-01T02:28:08.812Z,0.50
2019-06-01T02:29:08.846Z,0.40
2019-06-01T02:30:08.868Z,0.50
2019-06-01T02:31:08.897Z,0.50
2019-06-01T02:32:08.932Z,0.50
2019-06-01T02:33:08.961Z,0.50
2019-06-01T02:34:08.981Z,0.50
2019-06-01T02:35:09.010Z,0.60
2019-06-01T02:36:09.041Z,0.70
2019-06-01T02:37:09.063Z,0.50
2019-06-01T02:38:09.090Z,0.50
2019-06-01T02:39:09.121Z,0.50
2019-06-01T02:40:09.146Z,0.50
2019-06-01T02:41:09.174Z,0.40
2019-06-01T02:42:09.207Z,0.40
2019-06-01T02:43:09.227Z,0.50
2019-06-01T02:44:09.269Z,0.50
2019-06-01T02:45:09.284Z,0.50
2019-06-01T02:46:09.311Z,0.50
2019-06-01T02:47:09.344Z,0.50
2019-06-01T02:48:09.385Z,0.50
2019-06-01T02:49:09.411Z,0.60
2019-06-01T02:50:09.425Z,0.40
2019-06-01T02:51:09.450Z,0.40
2019-06-01T02:52:09.479Z,0.50
2019-06-01T02:53:09.506Z,0.50
2019-06-01T02:54:09.534Z,0.60
2019-06-01T02:55:09.563Z,0.60
2019-06-01T02:56:09.592Z,0.50
2019-06-01T02:57:09.624Z,0.50
2019-06-01T02:58:09.644Z,0.60
2019-06-01T02:59:09.675Z,0.50
2019-06-01T03:00:09.701Z,0.40
2019-06-01T03:01:09.734Z,0.50
2019-06-01T03:02:13.374Z,0.50
2019-06-01T03:03:09.783Z,0.40
2019-06-01T03:04:09.814Z,0.50
2019-06-01T03:05:09.854Z,0.50
2019-06-01T03:06:09.874Z,0.60
2019-06-01T03:07:09.895Z,0.50
2019-06-01T03:08:09.928Z,0.50
2019-06-01T03:09:09.957Z,0.50
2019-06-01T03:10:09.976Z,0.60
2019-06-01T03:11:10.029Z,0.50
2019-06-01T03:12:10.033Z,0.50
2019-06-01T03:13:10.063Z,0.50
2019-06-01T03:14:10.090Z,0.60
2019-06-01T03:15:10.118Z,0.50
2019-06-01T03:16:10.148Z,0.50
2019-06-01T03:17:10.179Z,0.50
2019-06-01T03:18:10.201Z,0.50
2019-06-01T03:19:10.226Z,0.60
2019-06-01T03:20:10.254Z,0.60
2019-06-01T03:21:10.285Z,0.50
2019-06-01T03:22:10.316Z,0.50
2019-06-01T03:23:10.340Z,0.50
2019-06-01T03:24:10.365Z,0.40
2019-06-01T03:25:10.391Z,0.50
2019-06-01T03:26:10.422Z,0.50
2019-06-01T03:27:10.451Z,0.50
2019-06-01T03:28:10.478Z,0.60
2019-06-01T03:29:10.505Z,0.50
2019-06-01T03:30:12.921Z,0.50
2019-06-01T03:31:10.822Z,0.60
2019-06-01T03:32:29.831Z,0.50
2019-06-01T03:33:10.771Z,0.60
2019-06-01T03:34:11.415Z,0.60
2019-06-01T03:35:10.667Z,0.50
2019-06-01T03:36:10.739Z,0.60
2019-06-01T03:37:10.727Z,0.60
2019-06-01T03:38:11.174Z,0.50
2019-06-01T03:39:10.806Z,0.50
2019-06-01T03:40:19.623Z,0.50
2019-06-01T03:41:10.836Z,0.50
2019-06-01T03:42:11.711Z,0.60
2019-06-01T03:43:11.366Z,0.50
2019-06-01T03:44:10.919Z,0.50
2019-06-01T03:45:12.342Z,0.60
2019-06-01T03:46:10.978Z,0.60
2019-06-01T03:47:11.894Z,0.50
2019-06-01T03:48:11.031Z,0.50
2019-06-01T03:49:12.006Z,0.50
2019-06-01T03:50:11.086Z,0.60
2019-06-01T03:51:11.993Z,0.50
2019-06-01T03:52:11.159Z,0.50
2019-06-01T03:53:12.172Z,0.60
2019-06-01T03:54:11.198Z,0.60
2019-06-01T03:55:12.025Z,0.50
2019-06-01T03:56:11.253Z,0.40
2019-06-01T03:57:11.345Z,0.50
2019-06-01T03:58:11.313Z,0.50
2019-06-01T03:59:11.368Z,0.50
2019-06-01T04:00:11.999Z,0.60
2019-06-01T04:01:11.390Z,0.60
2019-06-01T04:02:11.418Z,0.50
2019-06-01T04:03:11.446Z,0.50
2019-06-01T04:04:11.472Z,0.50
2019-06-01T04:05:11.511Z,0.40
2019-06-01T04:06:11.540Z,0.50
2019-06-01T04:07:12.449Z,0.50
2019-06-01T04:08:11.762Z,0.50
2019-06-01T04:09:11.911Z,0.50
2019-06-01T04:10:11.885Z,0.50
2019-06-01T04:11:11.805Z,0.40
2019-06-01T04:12:12.049Z,0.50
2019-06-01T04:13:11.974Z,0.50
2019-06-01T04:14:11.875Z,0.40
2019-06-01T04:15:14.492Z,0.50
2019-06-01T04:16:12.084Z,0.50
2019-06-01T04:17:12.220Z,0.40
2019-06-01T04:18:13.927Z,0.50
2019-06-01T04:19:12.264Z,0.60
2019-06-01T04:20:12.320Z,0.50
2019-06-01T04:21:12.199Z,0.60
2019-06-01T04:22:12.301Z,0.50
2019-06-01T04:23:12.372Z,0.60
2019-06-01T04:24:12.364Z,0.50
2019-06-01T04:25:12.353Z,0.50
2019-06-01T04:26:12.273Z,0.50
2019-06-01T04:27:12.355Z,0.50
2019-06-01T04:28:12.619Z,0.50
2019-06-01T04:29:12.617Z,0.50
2019-06-01T04:30:13.598Z,0.50
2019-06-01T04:31:12.820Z,0.50
2019-06-01T04:32:12.867Z,0.50
2019-06-01T04:33:13.266Z,0.50
2019-06-01T04:34:13.101Z,0.50
2019-06-01T04:35:13.192Z,0.60
2019-06-01T04:36:13.107Z,0.70
2019-06-01T04:37:13.354Z,0.40
2019-06-01T04:38:13.415Z,0.50
2019-06-01T04:39:13.642Z,0.60
2019-06-01T04:40:13.628Z,0.60
2019-06-01T04:41:13.991Z,0.60
2019-06-01T04:42:13.824Z,0.70
2019-06-01T04:43:12.558Z,0.60
2019-06-01T04:44:12.591Z,0.60
2019-06-01T04:45:12.661Z,0.50
2019-06-01T04:46:12.648Z,0.50
2019-06-01T04:47:12.670Z,0.50
2019-06-01T04:48:12.698Z,0.60
2019-06-01T04:49:13.362Z,0.50
2019-06-01T04:50:13.144Z,0.50
2019-06-01T04:51:13.463Z,0.50
2019-06-01T04:52:13.536Z,0.50
2019-06-01T04:53:13.442Z,0.50
2019-06-01T04:54:14.438Z,0.50
2019-06-01T04:55:13.115Z,0.50
2019-06-01T04:56:13.151Z,0.50
2019-06-01T04:57:13.087Z,0.50
2019-06-01T04:58:13.124Z,0.40
2019-06-01T04:59:13.078Z,0.50
2019-06-01T05:00:25.719Z,0.60
2019-06-01T05:01:13.090Z,0.50
2019-06-01T05:02:13.222Z,0.60
2019-06-01T05:03:13.576Z,0.50
2019-06-01T05:04:13.355Z,0.50
2019-06-01T05:05:13.393Z,0.60
2019-06-01T05:06:13.472Z,0.60
2019-06-01T05:07:13.543Z,0.50
2019-06-01T05:08:13.926Z,0.60
2019-06-01T05:09:13.427Z,0.60
2019-06-01T05:10:14.271Z,0.60
2019-06-01T05:11:13.596Z,0.60
2019-06-01T05:12:13.678Z,0.60
2019-06-01T05:13:13.617Z,0.50
2019-06-01T05:14:13.799Z,0.60
2019-06-01T05:15:13.952Z,0.50
2019-06-01T05:16:14.910Z,0.50
2019-06-01T05:17:14.980Z,0.50
2019-06-01T05:18:14.256Z,0.50
2019-06-01T05:19:14.318Z,0.60
2019-06-01T05:20:14.727Z,0.60
2019-06-01T05:21:15.196Z,0.50
2019-06-01T05:22:14.630Z,0.40
2019-06-01T05:23:14.834Z,0.50
2019-06-01T05:24:14.776Z,0.40
2019-06-01T05:25:15.278Z,0.50
2019-06-01T05:26:14.990Z,0.50
2019-06-01T05:27:15.152Z,0.60
2019-06-01T05:28:13.823Z,0.40
2019-06-01T05:29:56.398Z,0.60
2019-06-01T05:30:57.636Z,0.40
2019-06-01T05:32:56.478Z,0.50
2019-06-01T05:33:56.504Z,0.50
2019-06-01T05:34:56.532Z,0.50
2019-06-01T05:36:59.164Z,0.50
2019-06-01T05:37:59.190Z,0.50
2019-06-01T05:38:59.222Z,0.40
2019-06-01T05:39:59.248Z,0.40
2019-06-01T05:40:59.277Z,0.40
2019-06-01T05:41:59.304Z,0.40
2019-06-01T05:42:59.334Z,0.50
2019-06-01T05:43:59.365Z,0.40
2019-06-01T05:44:59.392Z,0.40
2019-06-01T05:45:59.425Z,0.50
2019-06-01T05:46:59.470Z,0.50
2019-06-01T05:47:59.482Z,0.50
2019-06-01T05:48:59.513Z,0.50
2019-06-01T05:49:59.541Z,0.60
2019-06-01T05:50:59.568Z,0.40
2019-06-01T05:51:59.597Z,0.50
2019-06-01T05:52:59.629Z,0.50
2019-06-01T05:53:59.660Z,0.40
2019-06-01T05:54:59.688Z,0.40
2019-06-01T05:55:59.716Z,0.50
2019-06-01T05:56:59.746Z,0.40
2019-06-01T05:57:59.782Z,0.40
2019-06-01T05:58:59.805Z,0.50
2019-06-01T05:59:59.834Z,0.50
2019-06-01T06:00:59.864Z,0.40
2019-06-01T06:01:59.901Z,0.40
2019-06-01T06:02:59.926Z,0.40
2019-06-01T06:03:59.961Z,0.50
2019-06-01T06:04:59.991Z,0.50
2019-06-01T06:06:00.013Z,0.40
2019-06-01T06:07:00.043Z,0.40
2019-06-01T06:08:00.083Z,0.50
2019-06-01T06:09:00.103Z,0.50
2019-06-01T06:10:00.135Z,0.40
2019-06-01T06:11:00.164Z,0.50
2019-06-01T06:12:00.196Z,0.50
2019-06-01T06:13:00.226Z,0.50
2019-06-01T06:14:00.257Z,0.50
2019-06-01T06:15:00.287Z,0.50
2019-06-01T06:16:00.317Z,0.50
2019-06-01T06:17:00.345Z,0.50
2019-06-01T06:18:00.376Z,0.50
2019-06-01T06:19:00.407Z,0.50
2019-06-01T06:20:00.437Z,0.40
2019-06-01T06:21:00.467Z,0.50
2019-06-01T06:22:00.501Z,0.60
2019-06-01T06:23:00.530Z,0.50
2019-06-01T06:24:00.558Z,0.50
2019-06-01T06:25:00.589Z,0.50
2019-06-01T06:26:00.634Z,0.50
2019-06-01T06:27:00.651Z,0.50
2019-06-01T06:28:00.684Z,0.40
2019-06-01T06:29:00.711Z,0.40
2019-06-01T06:30:00.748Z,0.40
2019-06-01T06:31:00.776Z,0.50
2019-06-01T06:32:00.805Z,0.50
2019-06-01T06:33:00.836Z,0.40
2019-06-01T06:34:00.871Z,0.50
2019-06-01T06:35:00.905Z,0.40
2019-06-01T06:36:00.929Z,0.40
2019-06-01T06:37:00.963Z,0.40
2019-06-01T06:38:00.991Z,0.50
2019-06-01T06:39:01.029Z,0.30
2019-06-01T06:40:01.057Z,0.40
2019-06-01T06:41:01.113Z,0.40
2019-06-01T06:42:01.208Z,0.40
2019-06-01T06:43:01.149Z,0.30
2019-06-01T06:44:01.187Z,0.30
2019-06-01T06:45:03.551Z,0.50
2019-06-01T06:46:01.263Z,0.40
2019-06-01T06:47:01.290Z,0.40
2019-06-01T06:48:01.315Z,0.40
2019-06-01T06:49:01.341Z,0.30
2019-06-01T06:50:01.375Z,0.40
2019-06-01T06:51:01.415Z,0.40
2019-06-01T06:52:01.446Z,0.40
2019-06-01T06:53:01.478Z,0.30
2019-06-01T06:54:01.499Z,0.40
2019-06-01T06:55:01.532Z,0.40
2019-06-01T06:56:01.603Z,0.30
2019-06-01T06:57:01.599Z,0.30
2019-06-01T06:58:01.637Z,0.40
2019-06-01T06:59:01.672Z,0.30
2019-06-01T07:00:01.707Z,0.40
2019-06-01T07:01:01.744Z,0.40
2019-06-01T07:02:01.756Z,0.40
2019-06-01T07:03:01.790Z,0.40
2019-06-01T07:04:12.217Z,0.30
2019-06-01T07:05:01.882Z,0.30
2019-06-01T07:06:01.909Z,0.30
2019-06-01T07:07:01.920Z,0.30
2019-06-01T07:08:01.970Z,0.40
2019-06-01T07:09:01.984Z,0.30
2019-06-01T07:10:02.038Z,0.30
2019-06-01T07:11:02.069Z,0.30
2019-06-01T07:12:02.083Z,0.30
2019-06-01T07:13:02.136Z,0.30
2019-06-01T07:14:02.161Z,0.40
2019-06-01T07:15:02.184Z,0.40
2019-06-01T07:16:03.962Z,0.30
2019-06-01T07:17:02.263Z,0.30
2019-06-01T07:18:02.286Z,0.20
2019-06-01T07:19:02.318Z,0.30
2019-06-01T07:20:02.350Z,0.40
2019-06-01T07:21:02.378Z,0.30
2019-06-01T07:22:02.411Z,0.40
2019-06-01T07:23:02.448Z,0.30
2019-06-01T07:24:02.503Z,0.20
2019-06-01T07:25:02.533Z,0.20
2019-06-01T07:26:02.546Z,0.20
2019-06-01T07:27:02.577Z,0.30
2019-06-01T07:28:02.632Z,0.30
2019-06-01T07:29:02.644Z,0.30
2019-06-01T07:30:02.706Z,0.20
2019-06-01T07:31:02.707Z,0.30
2019-06-01T07:32:02.744Z,0.30
2019-06-01T07:33:02.775Z,0.30
2019-06-01T07:34:02.810Z,0.20
2019-06-01T07:35:02.888Z,0.20
2019-06-01T07:36:02.877Z,0.30
2019-06-01T07:37:02.917Z,0.30
2019-06-01T07:38:02.941Z,0.20
2019-06-01T07:39:02.976Z,0.30
2019-06-01T07:40:03.012Z,0.30
2019-06-01T07:41:03.040Z,0.20
2019-06-01T07:42:03.299Z,0.20
2019-06-01T07:43:03.107Z,0.30
2019-06-01T07:44:03.143Z,0.20
2019-06-01T07:45:03.176Z,0.20
2019-06-01T07:46:03.207Z,0.20
2019-06-01T07:47:03.251Z,0.20
2019-06-01T07:48:03.290Z,0.20
2019-06-01T07:49:03.310Z,0.20
2019-06-01T07:50:03.347Z,0.20
2019-06-01T07:51:03.376Z,0.20
2019-06-01T07:52:12.765Z,0.20
2019-06-01T07:53:03.442Z,0.20
2019-06-01T07:54:03.485Z,0.20
2019-06-01T07:55:03.510Z,0.20
2019-06-01T07:56:03.570Z,0.20
2019-06-01T07:57:03.581Z,0.20
2019-06-01T07:58:03.619Z,0.20
2019-06-01T07:59:06.687Z,0.20
2019-06-01T08:03:03.798Z,0.20
2019-06-01T08:05:04.066Z,0.20
2019-06-01T08:06:03.891Z,0.20
2019-06-01T08:07:03.926Z,0.20
2019-06-01T08:08:04.163Z,0.20
2019-06-01T08:09:04.000Z,0.20
2019-06-01T08:11:04.052Z,0.20
2019-06-01T08:12:04.090Z,0.20
2019-06-01T08:13:04.123Z,0.20
2019-06-01T08:14:04.154Z,0.20
2019-06-01T08:15:04.200Z,0.10
2019-06-01T08:16:04.226Z,0.10
2019-06-01T08:17:04.258Z,0.20
2019-06-01T08:18:04.296Z,0.20
2019-06-01T08:19:04.326Z,0.20
2019-06-01T08:20:04.362Z,0.20
2019-06-01T08:21:04.395Z,0.20
2019-06-01T08:22:04.453Z,0.10
2019-06-01T08:23:04.465Z,0.10
2019-06-01T08:24:04.557Z,0.10
2019-06-01T08:25:04.533Z,0.20
2019-06-01T08:26:04.581Z,0.20
2019-06-01T08:27:04.605Z,0.20
2019-06-01T08:28:04.638Z,0.20
2019-06-01T08:29:04.699Z,0.20
2019-06-01T08:30:04.950Z,0.20
2019-06-01T08:31:04.755Z,0.30
2019-06-01T08:32:04.788Z,0.20
2019-06-01T08:33:04.820Z,0.20
2019-06-01T08:34:04.877Z,0.30
2019-06-01T08:35:09.363Z,0.20
2019-06-01T08:36:04.930Z,0.20
2019-06-01T08:37:05.363Z,0.30
2019-06-01T08:38:04.982Z,0.20
2019-06-01T08:39:05.018Z,0.30
2019-06-01T08:40:05.050Z,0.20
2019-06-01T08:41:05.085Z,0.20
2019-06-01T08:42:05.121Z,0.30
2019-06-01T08:43:05.152Z,0.20
2019-06-01T08:44:05.199Z,0.20
2019-06-01T08:45:05.223Z,0.20
2019-06-01T08:46:05.300Z,0.20
2019-06-01T08:47:05.289Z,0.20
2019-06-01T08:48:05.327Z,0.20
2019-06-01T08:49:05.365Z,0.20
2019-06-01T08:50:05.409Z,0.20
2019-06-01T08:51:05.431Z,0.20
2019-06-01T08:52:05.463Z,0.20
2019-06-01T08:53:05.495Z,0.10
2019-06-01T08:54:05.540Z,0.10
2019-06-01T08:55:05.563Z,0.10
2019-06-01T08:56:05.602Z,0.10
2019-06-01T08:57:05.641Z,0.20
2019-06-01T08:58:05.673Z,0.10
2019-06-01T08:59:05.706Z,0.20
2019-06-01T09:00:05.753Z,0.10
2019-06-01T09:01:05.799Z,0.10
2019-06-01T09:02:05.826Z,0.10
2019-06-01T09:03:05.859Z,0.10
2019-06-01T09:06:32.834Z,0.10
2019-06-01T09:07:33.108Z,0.10
2019-06-01T09:08:33.151Z,0.10
2019-06-01T09:09:33.041Z,0.10
2019-06-01T09:10:33.193Z,0.10
2019-06-01T09:11:33.226Z,0.10
2019-06-01T09:12:33.249Z,0.10
2019-06-01T09:13:33.237Z,0.10
2019-06-01T09:14:33.379Z,0.10
2019-06-01T09:15:33.650Z,0.10
2019-06-01T09:16:33.486Z,0.10
2019-06-01T09:17:33.426Z,0.10
2019-06-01T09:18:33.580Z,0.10
2019-06-01T09:19:33.591Z,0.20
2019-06-01T09:20:35.852Z,0.10
2019-06-01T09:21:33.609Z,0.10
2019-06-01T09:22:33.523Z,0.10
2019-06-01T09:23:33.792Z,0.10
2019-06-01T09:24:33.875Z,0.10
2019-06-01T09:25:33.740Z,0.10
2019-06-01T09:26:33.607Z,0.10
2019-06-01T09:27:33.846Z,0.10
2019-06-01T09:28:32.563Z,0.10
2019-06-01T09:29:33.994Z,0.10
2019-06-01T09:30:32.635Z,0.10
2019-06-01T09:31:32.690Z,0.10
2019-06-01T09:32:32.710Z,0.10
2019-06-01T09:33:32.754Z,0.10
2019-06-01T09:34:32.787Z,0.00
2019-06-01T09:35:48.598Z,0.10
2019-06-01T09:36:32.858Z,0.10
2019-06-01T09:37:32.903Z,0.10
2019-06-01T09:38:33.738Z,0.00
2019-06-01T09:39:33.195Z,0.10
2019-06-01T09:40:33.566Z,0.10
2019-06-01T09:41:33.047Z,0.10
2019-06-01T09:42:33.450Z,0.10
2019-06-01T09:43:33.122Z,0.00
2019-06-01T09:44:33.584Z,0.10
2019-06-01T09:45:34.492Z,0.10
2019-06-01T09:46:34.042Z,0.10
2019-06-01T09:47:33.370Z,0.10
2019-06-01T09:48:33.606Z,0.10
2019-06-01T09:49:34.105Z,0.10
2019-06-01T09:50:33.544Z,0.10
2019-06-01T09:51:33.502Z,0.10
2019-06-01T09:52:33.474Z,0.10
2019-06-01T09:53:34.421Z,0.10
2019-06-01T09:54:34.725Z,0.10
2019-06-01T09:55:34.481Z,0.10
2019-06-01T09:56:35.515Z,0.10
2019-06-01T09:57:34.175Z,0.10
2019-06-01T09:58:34.557Z,0.10
2019-06-01T09:59:34.086Z,0.10
2019-06-01T10:00:34.823Z,0.10
2019-06-01T10:01:34.414Z,0.10
2019-06-01T10:02:34.151Z,0.10
2019-06-01T10:03:34.475Z,0.10
2019-06-01T10:04:34.431Z,0.10
2019-06-01T10:05:34.845Z,0.10
2019-06-01T10:06:34.659Z,0.10
2019-06-01T10:07:34.853Z,0.10
2019-06-01T10:08:34.487Z,0.10
2019-06-01T10:09:34.097Z,0.10
2019-06-01T10:10:34.137Z,0.10
2019-06-01T10:11:34.357Z,0.10
2019-06-01T10:12:34.203Z,0.10
2019-06-01T10:13:34.723Z,0.10
2019-06-01T10:14:34.280Z,0.10
2019-06-01T10:15:34.434Z,0.10
2019-06-01T10:16:34.576Z,0.10
2019-06-01T10:17:35.168Z,0.10
2019-06-01T10:18:35.319Z,0.10
2019-06-01T10:19:34.703Z,0.10
2019-06-01T10:20:34.854Z,0.10
2019-06-01T10:21:34.541Z,0.10
2019-06-01T10:22:35.078Z,0.10
2019-06-01T10:23:34.733Z,0.10
2019-06-01T10:24:35.107Z,0.10
2019-06-01T10:25:34.691Z,0.10
2019-06-01T10:26:35.721Z,0.10
2019-06-01T10:27:34.770Z,0.10
2019-06-01T10:28:35.739Z,0.10
2019-06-01T10:29:34.841Z,0.10
2019-06-01T10:30:35.773Z,0.10
2019-06-01T10:31:34.917Z,0.10
2019-06-01T10:32:35.716Z,0.10
2019-06-01T10:33:35.175Z,0.10
2019-06-01T10:34:35.622Z,0.10
2019-06-01T10:35:35.123Z,0.10
2019-06-01T10:36:35.953Z,0.10
2019-06-01T10:37:35.420Z,0.10
2019-06-01T10:38:35.262Z,0.10
2019-06-01T10:39:35.341Z,0.10
2019-06-01T10:40:35.479Z,0.10
2019-06-01T10:41:35.400Z,0.10
2019-06-01T10:42:35.978Z,0.10
2019-06-01T10:43:35.673Z,0.10
2019-06-01T10:44:38.957Z,0.10
2019-06-01T10:45:35.786Z,0.10
2019-06-01T10:46:36.058Z,0.10
2019-06-01T10:47:35.970Z,0.10
2019-06-01T10:48:36.143Z,0.10
2019-06-01T10:49:35.960Z,0.10
2019-06-01T10:50:36.683Z,0.10
2019-06-01T10:51:36.212Z,0.10
2019-06-01T10:52:36.226Z,0.10
2019-06-01T10:53:36.339Z,0.10
2019-06-01T10:54:36.199Z,0.10
2019-06-01T10:55:38.267Z,0.10
2019-06-01T10:56:36.284Z,0.10
2019-06-01T10:57:36.631Z,0.10
2019-06-01T10:58:49.927Z,0.10
2019-06-01T10:59:36.995Z,0.10
2019-06-01T11:00:43.481Z,0.10
2019-06-01T11:01:37.372Z,0.10
2019-06-01T11:02:36.628Z,0.10
2019-06-01T11:03:36.703Z,0.10
2019-06-01T11:04:37.063Z,0.10
2019-06-01T11:05:36.723Z,0.10
2019-06-01T11:06:42.247Z,0.10
2019-06-01T11:07:36.784Z,0.10
2019-06-01T11:08:37.331Z,0.10
2019-06-01T11:09:36.935Z,0.10
2019-06-01T11:10:36.896Z,0.10
2019-06-01T11:11:36.913Z,0.10
2019-06-01T11:12:36.866Z,0.10
2019-06-01T11:13:37.083Z,0.10
2019-06-01T11:14:37.062Z,0.10
2019-06-01T11:15:36.987Z,0.10
2019-06-01T11:16:37.337Z,0.10
2019-06-01T11:17:37.056Z,0.10
2019-06-01T11:18:37.469Z,0.10
2019-06-01T11:19:37.209Z,0.10
2019-06-01T11:20:37.292Z,0.10
2019-06-01T11:21:37.450Z,0.10
2019-06-01T11:22:37.518Z,0.10
2019-06-01T11:23:37.461Z,0.10
2019-06-01T11:24:37.453Z,0.10
2019-06-01T11:25:37.539Z,0.10
2019-06-01T11:26:37.639Z,0.10
2019-06-01T11:27:37.743Z,0.10
2019-06-01T11:28:38.207Z,0.10
2019-06-01T11:29:43.780Z,0.10
2019-06-01T11:30:37.905Z,0.10
2019-06-01T11:31:38.310Z,0.10
2019-06-01T11:32:39.447Z,0.10
2019-06-01T11:33:38.192Z,0.10
2019-06-01T11:34:38.448Z,0.10
2019-06-01T11:35:37.336Z,0.10
2019-06-01T11:36:54.102Z,0.10
2019-06-01T11:37:38.412Z,0.10
2019-06-01T11:38:38.459Z,0.10
2019-06-01T11:39:38.468Z,0.10
2019-06-01T11:41:38.486Z,0.10
2019-06-01T11:42:39.047Z,0.10
2019-06-01T11:43:38.612Z,0.10
2019-06-01T11:44:38.661Z,0.10
2019-06-01T11:45:38.806Z,0.20
2019-06-01T11:46:38.872Z,0.10
2019-06-01T11:47:38.897Z,0.10
2019-06-01T11:48:39.220Z,0.10
2019-06-01T11:49:38.670Z,0.10
2019-06-01T11:50:38.945Z,0.20
2019-06-01T11:51:39.415Z,0.10
2019-06-01T11:52:39.205Z,0.20
2019-06-01T11:54:39.163Z,0.10
2019-06-01T11:55:39.221Z,0.10
2019-06-01T11:56:39.201Z,0.10
2019-06-01T11:58:39.220Z,0.10
2019-06-01T11:59:39.398Z,0.10
2019-06-01T12:00:39.494Z,0.10
2019-06-01T12:01:39.745Z,0.10
2019-06-01T12:02:39.666Z,0.10
2019-06-01T12:03:39.599Z,0.10
2019-06-01T12:04:39.732Z,0.10
2019-06-01T12:05:39.869Z,0.10
2019-06-01T12:06:39.814Z,0.10
2019-06-01T12:07:39.742Z,0.10
2019-06-01T12:08:39.876Z,0.10
2019-06-01T12:09:39.900Z,0.10
2019-06-01T12:10:38.992Z,0.10
2019-06-01T12:11:39.813Z,0.10
2019-06-01T12:12:40.034Z,0.10
2019-06-01T12:13:40.041Z,0.10
2019-06-01T12:15:40.176Z,0.10
2019-06-01T12:16:38.877Z,0.10
2019-06-01T12:17:39.006Z,0.10
2019-06-01T12:18:38.935Z,0.10
2019-06-01T12:19:38.977Z,0.10
2019-06-01T12:20:39.012Z,0.10
2019-06-01T12:21:39.249Z,0.10
2019-06-01T12:22:39.090Z,0.10
2019-06-01T12:23:39.122Z,0.10
2019-06-01T12:24:39.173Z,0.10
2019-06-01T12:25:40.144Z,0.10
2019-06-01T12:26:39.336Z,0.10
2019-06-01T12:27:39.625Z,0.10
2019-06-01T12:28:39.611Z,0.20
2019-06-01T12:29:39.509Z,0.10
2019-06-01T12:30:39.601Z,0.10
2019-06-01T12:31:39.662Z,0.20
2019-06-01T12:32:39.876Z,0.10
2019-06-01T12:33:39.862Z,0.10
2019-06-01T12:34:40.007Z,0.10
2019-06-01T12:35:39.887Z,0.10
2019-06-01T12:36:40.882Z,0.10
2019-06-01T12:38:22.607Z,0.20
2019-06-01T12:39:22.228Z,0.10
2019-06-01T12:40:22.265Z,0.10
2019-06-01T12:41:22.298Z,0.10
2019-06-01T12:42:22.331Z,0.20
2019-06-01T12:43:22.389Z,0.10
2019-06-01T12:44:22.402Z,0.20
2019-06-01T12:45:23.450Z,0.20
2019-06-01T12:46:22.475Z,0.20
2019-06-01T12:47:22.513Z,0.20
2019-06-01T12:48:22.552Z,0.20
2019-06-01T12:49:22.582Z,0.20
2019-06-01T12:50:22.616Z,0.20
2019-06-01T12:51:22.654Z,0.20
2019-06-01T12:52:22.685Z,0.20
2019-06-01T12:53:22.728Z,0.20
2019-06-01T12:54:22.756Z,0.20
2019-06-01T12:55:22.793Z,0.20
2019-06-01T12:56:22.825Z,0.20
2019-06-01T12:57:22.857Z,0.30
2019-06-01T12:58:22.894Z,0.20
2019-06-01T12:59:22.934Z,0.20
2019-06-01T13:00:22.972Z,0.20
2019-06-01T13:01:22.996Z,0.30
2019-06-01T13:02:23.031Z,0.30
2019-06-01T13:03:23.073Z,0.20
2019-06-01T13:04:24.515Z,0.30
2019-06-01T13:05:25.764Z,0.30
2019-06-01T13:06:23.171Z,0.30
2019-06-01T13:07:23.199Z,0.30
2019-06-01T13:08:23.235Z,0.30
2019-06-01T13:09:23.275Z,0.30
2019-06-01T13:10:23.300Z,0.40
2019-06-01T13:11:23.337Z,0.40
2019-06-01T13:12:23.381Z,0.40
2019-06-01T13:13:23.414Z,0.30
2019-06-01T13:14:23.439Z,0.30
2019-06-01T13:15:23.478Z,0.40
2019-06-01T13:16:23.505Z,0.30
2019-06-01T13:17:23.542Z,0.30
2019-06-01T13:18:23.570Z,0.30
2019-06-01T13:19:23.606Z,0.30
2019-06-01T13:20:23.638Z,0.30
2019-06-01T13:21:27.549Z,0.40
2019-06-01T13:22:23.708Z,0.30
2019-06-01T13:23:27.176Z,0.30
2019-06-01T13:24:23.775Z,0.40
2019-06-01T13:25:23.805Z,0.40
2019-06-01T13:26:23.838Z,0.40
2019-06-01T13:27:23.873Z,0.30
2019-06-01T13:28:37.313Z,0.30
2019-06-01T13:29:23.938Z,0.40
2019-06-01T13:30:23.971Z,0.40
2019-06-01T13:31:24.012Z,0.40
2019-06-01T13:32:24.041Z,0.40
2019-06-01T13:33:24.072Z,0.40